Terminal Aerodrome Forecast
Issued by NWS Quad Cities IA IL

Home | Current Version | Previous Version | Text Only | Print | Product List | Glossary On
Versions: 1 2 3 4 5 6 7 8 9 10 11 12 13 14 15 16
932
FTUS43 KDVN 211911 AAA
TAFDBQ
TAF AMD
KDBQ 211911Z 2119/2218 33013G19KT P6SM BKN120
     FM220000 36009KT P6SM SKC
     FM220500 05009KT P6SM SCT250
     FM221400 10010KT P6SM BKN100=

USA.gov is the U.S. government's official web portal to all federal, state and local government web resources and services.